sensor_id;sensor_type;location;lat;lon;timestamp;temperature;humidity
11818;DHT22;5966;52.402;5.322;2022-10-26T00:00:32;12.40;99.90
11818;DHT22;5966;52.402;5.322;2022-10-26T00:03:01;12.40;99.90
11818;DHT22;5966;52.402;5.322;2022-10-26T00:05:31;12.40;99.90
11818;DHT22;5966;52.402;5.322;2022-10-26T00:08:00;12.40;99.90
11818;DHT22;5966;52.402;5.322;2022-10-26T00:10:28;12.40;99.90
11818;DHT22;5966;52.402;5.322;2022-10-26T00:12:57;12.40;99.90
11818;DHT22;5966;52.402;5.322;2022-10-26T00:15:25;12.40;99.90
11818;DHT22;5966;52.402;5.322;2022-10-26T00:17:53;12.40;99.90
11818;DHT22;5966;52.402;5.322;2022-10-26T00:20:23;12.40;99.90
11818;DHT22;5966;52.402;5.322;2022-10-26T00:22:51;12.40;99.90
11818;DHT22;5966;52.402;5.322;2022-10-26T00:25:18;12.40;99.90
11818;DHT22;5966;52.402;5.322;2022-10-26T00:27:46;12.40;99.90
11818;DHT22;5966;52.402;5.322;2022-10-26T00:30:15;12.30;99.90
11818;DHT22;5966;52.402;5.322;2022-10-26T00:32:43;12.30;99.90
11818;DHT22;5966;52.402;5.322;2022-10-26T00:35:11;12.30;99.90
11818;DHT22;5966;52.402;5.322;2022-10-26T00:37:55;12.30;99.90
11818;DHT22;5966;52.402;5.322;2022-10-26T00:40:27;12.30;99.90
11818;DHT22;5966;52.402;5.322;2022-10-26T00:42:55;12.40;99.90
11818;DHT22;5966;52.402;5.322;2022-10-26T00:45:24;12.40;99.90
11818;DHT22;5966;52.402;5.322;2022-10-26T00:47:56;12.40;99.90
11818;DHT22;5966;52.402;5.322;2022-10-26T00:50:29;12.40;99.90
11818;DHT22;5966;52.402;5.322;2022-10-26T00:53:02;12.40;99.90
11818;DHT22;5966;52.402;5.322;2022-10-26T00:55:33;12.40;99.90
11818;DHT22;5966;52.402;5.322;2022-10-26T00:58:05;12.40;99.90
11818;DHT22;5966;52.402;5.322;2022-10-26T01:00:33;12.40;99.90
11818;DHT22;5966;52.402;5.322;2022-10-26T01:03:04;12.40;99.90
11818;DHT22;5966;52.402;5.322;2022-10-26T01:05:33;12.40;99.90
11818;DHT22;5966;52.402;5.322;2022-10-26T01:08:05;12.40;99.90
11818;DHT22;5966;52.402;5.322;2022-10-26T01:10:34;12.40;99.90
11818;DHT22;5966;52.402;5.322;2022-10-26T01:13:02;12.30;99.90
11818;DHT22;5966;52.402;5.322;2022-10-26T01:15:37;12.30;99.90
11818;DHT22;5966;52.402;5.322;2022-10-26T01:18:14;12.30;99.90
11818;DHT22;5966;52.402;5.322;2022-10-26T01:23:49;12.30;99.90
11818;DHT22;5966;52.402;5.322;2022-10-26T01:26:35;12.30;99.90
11818;DHT22;5966;52.402;5.322;2022-10-26T01:29:28;12.30;99.90
11818;DHT22;5966;52.402;5.322;2022-10-26T01:32:07;12.30;99.90
11818;DHT22;5966;52.402;5.322;2022-10-26T01:34:39;12.30;99.90
11818;DHT22;5966;52.402;5.322;2022-10-26T01:37:12;12.20;99.90
11818;DHT22;5966;52.402;5.322;2022-10-26T01:39:45;12.20;99.90
11818;DHT22;5966;52.402;5.322;2022-10-26T01:42:15;12.20;99.90
11818;DHT22;5966;52.402;5.322;2022-10-26T01:44:47;12.20;99.90
11818;DHT22;5966;52.402;5.322;2022-10-26T01:47:17;12.20;99.90
11818;DHT22;5966;52.402;5.322;2022-10-26T01:49:50;12.20;99.90
11818;DHT22;5966;52.402;5.322;2022-10-26T01:52:19;12.20;99.90
11818;DHT22;5966;52.402;5.322;2022-10-26T01:54:47;12.20;99.90
11818;DHT22;5966;52.402;5.322;2022-10-26T01:57:17;12.20;99.90
11818;DHT22;5966;52.402;5.322;2022-10-26T01:59:56;12.20;99.90
11818;DHT22;5966;52.402;5.322;2022-10-26T02:02:44;12.20;99.90
11818;DHT22;5966;52.402;5.322;2022-10-26T02:05:32;12.20;99.90
11818;DHT22;5966;52.402;5.322;2022-10-26T02:08:11;12.20;99.90
11818;DHT22;5966;52.402;5.322;2022-10-26T02:10:47;12.30;99.90
11818;DHT22;5966;52.402;5.322;2022-10-26T02:13:20;12.20;99.90
11818;DHT22;5966;52.402;5.322;2022-10-26T02:15:53;12.20;99.90
11818;DHT22;5966;52.402;5.322;2022-10-26T02:18:30;12.20;99.90
11818;DHT22;5966;52.402;5.322;2022-10-26T02:21:05;12.20;99.90
11818;DHT22;5966;52.402;5.322;2022-10-26T02:23:37;12.20;99.90
11818;DHT22;5966;52.402;5.322;2022-10-26T02:26:08;12.20;99.90
11818;DHT22;5966;52.402;5.322;2022-10-26T02:28:41;12.10;99.90
11818;DHT22;5966;52.402;5.322;2022-10-26T02:31:12;12.10;99.90
11818;DHT22;5966;52.402;5.322;2022-10-26T02:33:44;12.20;99.90
11818;DHT22;5966;52.402;5.322;2022-10-26T02:36:20;12.20;99.90
11818;DHT22;5966;52.402;5.322;2022-10-26T02:38:49;12.20;99.90
11818;DHT22;5966;52.402;5.322;2022-10-26T02:41:19;12.20;99.90
11818;DHT22;5966;52.402;5.322;2022-10-26T02:43:52;12.20;99.90
11818;DHT22;5966;52.402;5.322;2022-10-26T02:46:22;12.20;99.90
11818;DHT22;5966;52.402;5.322;2022-10-26T02:48:53;12.20;99.90
11818;DHT22;5966;52.402;5.322;2022-10-26T02:51:28;12.20;99.90
11818;DHT22;5966;52.402;5.322;2022-10-26T02:54:00;12.30;99.90
11818;DHT22;5966;52.402;5.322;2022-10-26T02:56:33;12.20;99.90
11818;DHT22;5966;52.402;5.322;2022-10-26T02:59:05;12.30;99.90
11818;DHT22;5966;52.402;5.322;2022-10-26T03:01:35;12.30;99.90
11818;DHT22;5966;52.402;5.322;2022-10-26T03:04:05;12.30;99.90
11818;DHT22;5966;52.402;5.322;2022-10-26T03:06:33;12.30;99.90
11818;DHT22;5966;52.402;5.322;2022-10-26T03:09:01;12.40;99.90
11818;DHT22;5966;52.402;5.322;2022-10-26T03:11:29;12.40;99.90
11818;DHT22;5966;52.402;5.322;2022-10-26T03:13:57;12.40;99.90
11818;DHT22;5966;52.402;5.322;2022-10-26T03:16:25;12.40;99.90
11818;DHT22;5966;52.402;5.322;2022-10-26T03:18:53;12.40;99.90
11818;DHT22;5966;52.402;5.322;2022-10-26T03:21:22;12.50;99.90
11818;DHT22;5966;52.402;5.322;2022-10-26T03:23:50;12.50;99.90
11818;DHT22;5966;52.402;5.322;2022-10-26T03:26:18;12.60;99.90
11818;DHT22;5966;52.402;5.322;2022-10-26T03:28:45;12.60;99.90
11818;DHT22;5966;52.402;5.322;2022-10-26T03:31:13;12.60;99.90
11818;DHT22;5966;52.402;5.322;2022-10-26T03:33:41;12.60;99.90
11818;DHT22;5966;52.402;5.322;2022-10-26T03:36:09;12.60;99.90
11818;DHT22;5966;52.402;5.322;2022-10-26T03:38:38;12.60;99.90
11818;DHT22;5966;52.402;5.322;2022-10-26T03:41:06;12.60;99.90
11818;DHT22;5966;52.402;5.322;2022-10-26T03:43:34;12.60;99.90
11818;DHT22;5966;52.402;5.322;2022-10-26T03:46:02;12.60;99.90
11818;DHT22;5966;52.402;5.322;2022-10-26T03:48:30;12.50;99.90
11818;DHT22;5966;52.402;5.322;2022-10-26T03:50:58;12.50;99.90
11818;DHT22;5966;52.402;5.322;2022-10-26T03:53:26;12.60;99.90
11818;DHT22;5966;52.402;5.322;2022-10-26T03:55:55;12.60;99.90
11818;DHT22;5966;52.402;5.322;2022-10-26T03:58:23;12.60;99.90
11818;DHT22;5966;52.402;5.322;2022-10-26T04:00:56;12.60;99.90
11818;DHT22;5966;52.402;5.322;2022-10-26T04:03:24;12.60;99.90
11818;DHT22;5966;52.402;5.322;2022-10-26T04:05:52;12.60;99.90
11818;DHT22;5966;52.402;5.322;2022-10-26T04:08:19;12.60;99.90
11818;DHT22;5966;52.402;5.322;2022-10-26T04:10:47;12.60;99.90
11818;DHT22;5966;52.402;5.322;2022-10-26T04:13:17;12.60;99.90
11818;DHT22;5966;52.402;5.322;2022-10-26T04:15:45;12.60;99.90
11818;DHT22;5966;52.402;5.322;2022-10-26T04:18:12;12.60;99.90
11818;DHT22;5966;52.402;5.322;2022-10-26T04:20:40;12.50;99.90
11818;DHT22;5966;52.402;5.322;2022-10-26T04:23:11;12.50;99.90
11818;DHT22;5966;52.402;5.322;2022-10-26T04:25:39;12.50;99.90
11818;DHT22;5966;52.402;5.322;2022-10-26T04:28:09;12.50;99.90
11818;DHT22;5966;52.402;5.322;2022-10-26T04:30:39;12.60;99.90
11818;DHT22;5966;52.402;5.322;2022-10-26T04:33:07;12.60;99.90
11818;DHT22;5966;52.402;5.322;2022-10-26T04:35:35;12.60;99.90
11818;DHT22;5966;52.402;5.322;2022-10-26T04:38:04;12.60;99.90
11818;DHT22;5966;52.402;5.322;2022-10-26T04:40:33;12.60;99.90
11818;DHT22;5966;52.402;5.322;2022-10-26T04:43:01;12.70;99.90
11818;DHT22;5966;52.402;5.322;2022-10-26T04:45:29;12.60;99.90
11818;DHT22;5966;52.402;5.322;2022-10-26T04:48:00;12.70;99.90
11818;DHT22;5966;52.402;5.322;2022-10-26T04:50:28;12.70;99.90
11818;DHT22;5966;52.402;5.322;2022-10-26T04:52:56;12.70;99.90
11818;DHT22;5966;52.402;5.322;2022-10-26T04:55:24;12.70;99.90
11818;DHT22;5966;52.402;5.322;2022-10-26T04:57:52;12.70;99.90
11818;DHT22;5966;52.402;5.322;2022-10-26T05:00:25;12.70;99.90
11818;DHT22;5966;52.402;5.322;2022-10-26T05:02:59;12.80;99.90
11818;DHT22;5966;52.402;5.322;2022-10-26T05:05:28;12.80;99.90
11818;DHT22;5966;52.402;5.322;2022-10-26T05:07:57;12.80;99.90
11818;DHT22;5966;52.402;5.322;2022-10-26T05:10:26;12.80;99.90
11818;DHT22;5966;52.402;5.322;2022-10-26T05:12:55;12.80;99.90
11818;DHT22;5966;52.402;5.322;2022-10-26T05:15:23;12.80;99.90
11818;DHT22;5966;52.402;5.322;2022-10-26T05:17:54;12.80;99.90
11818;DHT22;5966;52.402;5.322;2022-10-26T05:20:24;12.80;99.90
11818;DHT22;5966;52.402;5.322;2022-10-26T05:22:56;12.80;99.90
11818;DHT22;5966;52.402;5.322;2022-10-26T05:25:24;12.80;99.90
11818;DHT22;5966;52.402;5.322;2022-10-26T05:27:56;12.80;99.90
11818;DHT22;5966;52.402;5.322;2022-10-26T05:30:24;12.80;99.90
11818;DHT22;5966;52.402;5.322;2022-10-26T05:32:53;12.80;99.90
11818;DHT22;5966;52.402;5.322;2022-10-26T05:35:21;12.80;99.90
11818;DHT22;5966;52.402;5.322;2022-10-26T05:37:50;12.80;99.90
11818;DHT22;5966;52.402;5.322;2022-10-26T05:40:18;12.80;99.90
11818;DHT22;5966;52.402;5.322;2022-10-26T05:42:46;12.80;99.90
11818;DHT22;5966;52.402;5.322;2022-10-26T05:45:17;12.80;99.90
11818;DHT22;5966;52.402;5.322;2022-10-26T05:47:45;12.70;99.90
11818;DHT22;5966;52.402;5.322;2022-10-26T05:50:13;12.70;99.90
11818;DHT22;5966;52.402;5.322;2022-10-26T05:52:43;12.80;99.90
11818;DHT22;5966;52.402;5.322;2022-10-26T05:55:14;12.70;99.90
11818;DHT22;5966;52.402;5.322;2022-10-26T05:57:43;12.80;99.90
11818;DHT22;5966;52.402;5.322;2022-10-26T06:00:15;12.70;99.90
11818;DHT22;5966;52.402;5.322;2022-10-26T06:02:59;12.80;99.90
11818;DHT22;5966;52.402;5.322;2022-10-26T06:05:32;12.80;99.90
11818;DHT22;5966;52.402;5.322;2022-10-26T06:08:02;12.80;99.90
11818;DHT22;5966;52.402;5.322;2022-10-26T06:10:32;12.80;99.90
11818;DHT22;5966;52.402;5.322;2022-10-26T06:13:00;12.80;99.90
11818;DHT22;5966;52.402;5.322;2022-10-26T06:15:31;12.90;99.90
11818;DHT22;5966;52.402;5.322;2022-10-26T06:18:10;12.90;99.90
11818;DHT22;5966;52.402;5.322;2022-10-26T06:20:48;12.90;99.90
11818;DHT22;5966;52.402;5.322;2022-10-26T06:23:36;12.90;99.90
11818;DHT22;5966;52.402;5.322;2022-10-26T06:26:14;12.90;99.90
11818;DHT22;5966;52.402;5.322;2022-10-26T06:28:51;12.90;99.90
11818;DHT22;5966;52.402;5.322;2022-10-26T06:31:21;12.90;99.90
11818;DHT22;5966;52.402;5.322;2022-10-26T06:33:57;13.00;99.90
11818;DHT22;5966;52.402;5.322;2022-10-26T06:36:26;12.90;99.90
11818;DHT22;5966;52.402;5.322;2022-10-26T06:38:58;12.90;99.90
11818;DHT22;5966;52.402;5.322;2022-10-26T06:41:29;12.90;99.90
11818;DHT22;5966;52.402;5.322;2022-10-26T06:43:58;12.90;99.90
11818;DHT22;5966;52.402;5.322;2022-10-26T06:46:35;12.90;99.90
11818;DHT22;5966;52.402;5.322;2022-10-26T06:49:12;12.80;99.90
11818;DHT22;5966;52.402;5.322;2022-10-26T06:51:45;12.80;99.90
11818;DHT22;5966;52.402;5.322;2022-10-26T06:54:18;12.80;99.90
11818;DHT22;5966;52.402;5.322;2022-10-26T06:56:49;12.80;99.90
11818;DHT22;5966;52.402;5.322;2022-10-26T06:59:28;12.70;99.90
11818;DHT22;5966;52.402;5.322;2022-10-26T07:01:57;12.80;99.90
11818;DHT22;5966;52.402;5.322;2022-10-26T07:04:31;12.70;99.90
11818;DHT22;5966;52.402;5.322;2022-10-26T07:06:59;12.70;99.90
11818;DHT22;5966;52.402;5.322;2022-10-26T07:09:27;12.70;99.90
11818;DHT22;5966;52.402;5.322;2022-10-26T07:11:56;12.70;99.90
11818;DHT22;5966;52.402;5.322;2022-10-26T07:14:24;12.60;99.90
11818;DHT22;5966;52.402;5.322;2022-10-26T07:16:52;12.60;99.90
11818;DHT22;5966;52.402;5.322;2022-10-26T07:19:20;12.70;99.90
11818;DHT22;5966;52.402;5.322;2022-10-26T07:21:47;12.70;99.90
11818;DHT22;5966;52.402;5.322;2022-10-26T07:24:15;12.80;99.90
11818;DHT22;5966;52.402;5.322;2022-10-26T07:26:43;12.80;99.90
11818;DHT22;5966;52.402;5.322;2022-10-26T07:29:12;12.80;99.90
11818;DHT22;5966;52.402;5.322;2022-10-26T07:31:41;12.80;99.90
11818;DHT22;5966;52.402;5.322;2022-10-26T07:34:09;12.90;99.90
11818;DHT22;5966;52.402;5.322;2022-10-26T07:36:37;13.00;99.90
11818;DHT22;5966;52.402;5.322;2022-10-26T07:39:05;13.00;99.90
11818;DHT22;5966;52.402;5.322;2022-10-26T07:41:34;13.10;99.90
11818;DHT22;5966;52.402;5.322;2022-10-26T07:44:02;13.10;99.90
11818;DHT22;5966;52.402;5.322;2022-10-26T07:46:31;13.20;99.90
11818;DHT22;5966;52.402;5.322;2022-10-26T07:48:59;13.30;99.90
11818;DHT22;5966;52.402;5.322;2022-10-26T07:51:27;13.40;99.90
11818;DHT22;5966;52.402;5.322;2022-10-26T07:53:55;13.50;99.90
11818;DHT22;5966;52.402;5.322;2022-10-26T07:56:23;13.50;99.90
11818;DHT22;5966;52.402;5.322;2022-10-26T07:58:51;13.60;99.90
11818;DHT22;5966;52.402;5.322;2022-10-26T08:01:20;13.60;99.90
11818;DHT22;5966;52.402;5.322;2022-10-26T08:03:52;13.70;99.90
11818;DHT22;5966;52.402;5.322;2022-10-26T08:06:20;13.80;99.90
11818;DHT22;5966;52.402;5.322;2022-10-26T08:08:48;13.80;99.90
11818;DHT22;5966;52.402;5.322;2022-10-26T08:11:17;13.80;99.90
11818;DHT22;5966;52.402;5.322;2022-10-26T08:13:45;13.80;99.90
11818;DHT22;5966;52.402;5.322;2022-10-26T08:16:13;13.80;99.90
11818;DHT22;5966;52.402;5.322;2022-10-26T08:18:41;13.80;99.90
11818;DHT22;5966;52.402;5.322;2022-10-26T08:21:10;13.90;99.90
11818;DHT22;5966;52.402;5.322;2022-10-26T08:23:46;13.90;99.90
11818;DHT22;5966;52.402;5.322;2022-10-26T08:26:15;13.90;99.90
11818;DHT22;5966;52.402;5.322;2022-10-26T08:28:47;13.90;99.90
11818;DHT22;5966;52.402;5.322;2022-10-26T08:31:15;13.90;99.90
11818;DHT22;5966;52.402;5.322;2022-10-26T08:33:43;14.00;99.90
11818;DHT22;5966;52.402;5.322;2022-10-26T08:36:12;14.00;99.90
11818;DHT22;5966;52.402;5.322;2022-10-26T08:38:46;14.10;99.90
11818;DHT22;5966;52.402;5.322;2022-10-26T08:41:14;14.20;99.90
11818;DHT22;5966;52.402;5.322;2022-10-26T08:43:46;14.30;99.90
11818;DHT22;5966;52.402;5.322;2022-10-26T08:46:20;14.30;99.90
11818;DHT22;5966;52.402;5.322;2022-10-26T08:48:51;14.40;99.90
11818;DHT22;5966;52.402;5.322;2022-10-26T08:51:25;14.40;99.90
11818;DHT22;5966;52.402;5.322;2022-10-26T08:54:03;14.40;99.90
11818;DHT22;5966;52.402;5.322;2022-10-26T08:56:38;14.40;99.90
11818;DHT22;5966;52.402;5.322;2022-10-26T08:59:16;14.40;99.90
11818;DHT22;5966;52.402;5.322;2022-10-26T09:01:48;14.50;99.90
11818;DHT22;5966;52.402;5.322;2022-10-26T09:04:16;14.50;99.90
11818;DHT22;5966;52.402;5.322;2022-10-26T09:06:52;14.50;99.90
11818;DHT22;5966;52.402;5.322;2022-10-26T09:09:27;14.60;99.90
11818;DHT22;5966;52.402;5.322;2022-10-26T09:12:08;14.70;99.90
11818;DHT22;5966;52.402;5.322;2022-10-26T09:14:42;14.80;99.90
11818;DHT22;5966;52.402;5.322;2022-10-26T09:17:30;14.90;99.90
11818;DHT22;5966;52.402;5.322;2022-10-26T09:23:12;15.00;99.90
11818;DHT22;5966;52.402;5.322;2022-10-26T09:25:45;15.20;99.90
11818;DHT22;5966;52.402;5.322;2022-10-26T09:28:18;15.20;99.90
11818;DHT22;5966;52.402;5.322;2022-10-26T09:30:46;15.20;99.90
11818;DHT22;5966;52.402;5.322;2022-10-26T09:33:16;15.30;99.90
11818;DHT22;5966;52.402;5.322;2022-10-26T09:35:48;15.30;99.90
11818;DHT22;5966;52.402;5.322;2022-10-26T09:38:23;15.40;99.90
11818;DHT22;5966;52.402;5.322;2022-10-26T09:40:56;15.40;99.90
11818;DHT22;5966;52.402;5.322;2022-10-26T09:43:28;15.40;99.90
11818;DHT22;5966;52.402;5.322;2022-10-26T09:46:00;15.50;99.90
11818;DHT22;5966;52.402;5.322;2022-10-26T09:48:34;15.50;99.90
11818;DHT22;5966;52.402;5.322;2022-10-26T09:51:15;15.60;99.90
11818;DHT22;5966;52.402;5.322;2022-10-26T09:53:47;15.70;99.90
11818;DHT22;5966;52.402;5.322;2022-10-26T09:56:17;15.80;99.90
11818;DHT22;5966;52.402;5.322;2022-10-26T09:58:49;15.90;99.90
11818;DHT22;5966;52.402;5.322;2022-10-26T10:01:28;15.90;99.90
11818;DHT22;5966;52.402;5.322;2022-10-26T10:04:15;16.00;99.90
11818;DHT22;5966;52.402;5.322;2022-10-26T10:06:44;16.00;99.90
11818;DHT22;5966;52.402;5.322;2022-10-26T10:09:15;16.10;99.90
11818;DHT22;5966;52.402;5.322;2022-10-26T10:11:45;16.10;99.90
11818;DHT22;5966;52.402;5.322;2022-10-26T10:14:21;16.20;99.90
11818;DHT22;5966;52.402;5.322;2022-10-26T10:16:52;16.30;99.90
11818;DHT22;5966;52.402;5.322;2022-10-26T10:19:23;16.30;99.90
11818;DHT22;5966;52.402;5.322;2022-10-26T10:21:54;16.30;99.90
11818;DHT22;5966;52.402;5.322;2022-10-26T10:24:26;16.40;99.90
11818;DHT22;5966;52.402;5.322;2022-10-26T10:26:59;16.50;99.90
11818;DHT22;5966;52.402;5.322;2022-10-26T10:29:29;16.60;99.90
11818;DHT22;5966;52.402;5.322;2022-10-26T10:31:58;16.60;99.90
11818;DHT22;5966;52.402;5.322;2022-10-26T10:34:28;16.70;99.90
11818;DHT22;5966;52.402;5.322;2022-10-26T10:36:56;16.70;99.90
11818;DHT22;5966;52.402;5.322;2022-10-26T10:39:36;16.70;99.90
11818;DHT22;5966;52.402;5.322;2022-10-26T10:42:13;16.70;99.90
11818;DHT22;5966;52.402;5.322;2022-10-26T10:44:43;16.80;99.90
11818;DHT22;5966;52.402;5.322;2022-10-26T10:47:22;16.80;99.90
11818;DHT22;5966;52.402;5.322;2022-10-26T10:49:52;16.80;99.90
11818;DHT22;5966;52.402;5.322;2022-10-26T10:52:25;16.90;99.90
11818;DHT22;5966;52.402;5.322;2022-10-26T10:55:13;16.90;99.90
11818;DHT22;5966;52.402;5.322;2022-10-26T10:57:53;16.90;99.90
11818;DHT22;5966;52.402;5.322;2022-10-26T11:00:26;16.90;99.90
11818;DHT22;5966;52.402;5.322;2022-10-26T11:03:07;17.00;99.90
11818;DHT22;5966;52.402;5.322;2022-10-26T11:06:12;17.00;99.90
11818;DHT22;5966;52.402;5.322;2022-10-26T11:08:46;17.00;99.90
11818;DHT22;5966;52.402;5.322;2022-10-26T11:11:19;17.00;99.90
11818;DHT22;5966;52.402;5.322;2022-10-26T11:13:51;17.10;99.90
11818;DHT22;5966;52.402;5.322;2022-10-26T11:16:22;17.10;99.90
11818;DHT22;5966;52.402;5.322;2022-10-26T11:18:54;17.10;99.90
11818;DHT22;5966;52.402;5.322;2022-10-26T11:21:26;17.20;99.90
11818;DHT22;5966;52.402;5.322;2022-10-26T11:24:01;17.20;99.90
11818;DHT22;5966;52.402;5.322;2022-10-26T11:26:42;17.10;99.90
11818;DHT22;5966;52.402;5.322;2022-10-26T11:29:21;17.10;99.90
11818;DHT22;5966;52.402;5.322;2022-10-26T11:31:53;17.10;99.90
11818;DHT22;5966;52.402;5.322;2022-10-26T11:34:28;17.10;99.90
11818;DHT22;5966;52.402;5.322;2022-10-26T11:37:03;17.10;99.90
11818;DHT22;5966;52.402;5.322;2022-10-26T11:39:37;17.00;99.90
11818;DHT22;5966;52.402;5.322;2022-10-26T11:42:19;17.00;99.90
11818;DHT22;5966;52.402;5.322;2022-10-26T11:44:52;17.00;99.90
11818;DHT22;5966;52.402;5.322;2022-10-26T11:47:27;17.00;99.90
11818;DHT22;5966;52.402;5.322;2022-10-26T11:50:05;17.00;99.90
11818;DHT22;5966;52.402;5.322;2022-10-26T11:52:46;17.00;99.90
11818;DHT22;5966;52.402;5.322;2022-10-26T11:55:17;17.10;99.90
11818;DHT22;5966;52.402;5.322;2022-10-26T11:57:47;17.10;99.90
11818;DHT22;5966;52.402;5.322;2022-10-26T12:00:17;17.20;99.90
11818;DHT22;5966;52.402;5.322;2022-10-26T12:02:49;17.20;99.90
11818;DHT22;5966;52.402;5.322;2022-10-26T12:05:21;17.20;99.90
11818;DHT22;5966;52.402;5.322;2022-10-26T12:07:52;17.20;99.90
11818;DHT22;5966;52.402;5.322;2022-10-26T12:10:24;17.30;99.90
11818;DHT22;5966;52.402;5.322;2022-10-26T12:13:00;17.30;99.90
11818;DHT22;5966;52.402;5.322;2022-10-26T12:15:35;17.30;99.90
11818;DHT22;5966;52.402;5.322;2022-10-26T12:18:35;17.30;99.90
11818;DHT22;5966;52.402;5.322;2022-10-26T12:21:20;17.30;99.90
11818;DHT22;5966;52.402;5.322;2022-10-26T12:23:54;17.30;99.90
11818;DHT22;5966;52.402;5.322;2022-10-26T12:26:49;17.30;99.90
11818;DHT22;5966;52.402;5.322;2022-10-26T12:29:43;17.40;99.90
11818;DHT22;5966;52.402;5.322;2022-10-26T12:35:38;17.40;99.90
11818;DHT22;5966;52.402;5.322;2022-10-26T12:41:25;17.40;99.90
11818;DHT22;5966;52.402;5.322;2022-10-26T12:43:57;17.50;99.90
11818;DHT22;5966;52.402;5.322;2022-10-26T12:46:43;17.60;99.90
11818;DHT22;5966;52.402;5.322;2022-10-26T12:52:46;17.60;99.90
11818;DHT22;5966;52.402;5.322;2022-10-26T12:58:40;17.80;99.90
11818;DHT22;5966;52.402;5.322;2022-10-26T13:04:36;17.80;99.90
11818;DHT22;5966;52.402;5.322;2022-10-26T13:07:22;17.80;99.90
11818;DHT22;5966;52.402;5.322;2022-10-26T13:09:56;17.80;99.90
11818;DHT22;5966;52.402;5.322;2022-10-26T13:12:25;17.80;99.90
11818;DHT22;5966;52.402;5.322;2022-10-26T13:14:58;17.80;99.90
11818;DHT22;5966;52.402;5.322;2022-10-26T13:17:28;17.80;99.90
11818;DHT22;5966;52.402;5.322;2022-10-26T13:20:00;17.80;99.90
11818;DHT22;5966;52.402;5.322;2022-10-26T13:22:30;17.80;99.90
11818;DHT22;5966;52.402;5.322;2022-10-26T13:25:00;17.90;99.90
11818;DHT22;5966;52.402;5.322;2022-10-26T13:27:42;17.90;99.90
11818;DHT22;5966;52.402;5.322;2022-10-26T13:30:40;17.90;99.90
11818;DHT22;5966;52.402;5.322;2022-10-26T13:33:18;17.90;99.90
11818;DHT22;5966;52.402;5.322;2022-10-26T13:35:51;17.90;99.90
11818;DHT22;5966;52.402;5.322;2022-10-26T13:38:23;17.90;99.90
11818;DHT22;5966;52.402;5.322;2022-10-26T13:41:04;17.90;99.90
11818;DHT22;5966;52.402;5.322;2022-10-26T13:43:35;17.90;99.90
11818;DHT22;5966;52.402;5.322;2022-10-26T13:46:04;18.00;99.90
11818;DHT22;5966;52.402;5.322;2022-10-26T13:48:37;18.00;99.90
11818;DHT22;5966;52.402;5.322;2022-10-26T13:51:15;18.00;99.90
11818;DHT22;5966;52.402;5.322;2022-10-26T13:53:49;18.00;99.90
11818;DHT22;5966;52.402;5.322;2022-10-26T13:56:26;18.00;99.90
11818;DHT22;5966;52.402;5.322;2022-10-26T13:58:59;18.00;99.90
11818;DHT22;5966;52.402;5.322;2022-10-26T14:01:29;18.00;99.90
11818;DHT22;5966;52.402;5.322;2022-10-26T14:03:57;18.00;99.90
11818;DHT22;5966;52.402;5.322;2022-10-26T14:06:30;18.10;99.90
11818;DHT22;5966;52.402;5.322;2022-10-26T14:09:02;18.10;99.90
11818;DHT22;5966;52.402;5.322;2022-10-26T14:11:33;18.10;99.90
11818;DHT22;5966;52.402;5.322;2022-10-26T14:14:02;18.10;99.90
11818;DHT22;5966;52.402;5.322;2022-10-26T14:16:32;18.10;99.90
11818;DHT22;5966;52.402;5.322;2022-10-26T14:19:00;18.20;99.90
11818;DHT22;5966;52.402;5.322;2022-10-26T14:21:30;18.20;99.90
11818;DHT22;5966;52.402;5.322;2022-10-26T14:23:59;18.20;99.90
11818;DHT22;5966;52.402;5.322;2022-10-26T14:26:37;18.20;99.90
11818;DHT22;5966;52.402;5.322;2022-10-26T14:29:14;18.10;99.90
11818;DHT22;5966;52.402;5.322;2022-10-26T14:31:42;18.10;99.90
11818;DHT22;5966;52.402;5.322;2022-10-26T14:34:11;18.10;99.90
11818;DHT22;5966;52.402;5.322;2022-10-26T14:36:45;18.20;99.90
11818;DHT22;5966;52.402;5.322;2022-10-26T14:39:19;18.10;99.90
11818;DHT22;5966;52.402;5.322;2022-10-26T14:41:51;18.20;99.90
11818;DHT22;5966;52.402;5.322;2022-10-26T14:44:22;18.20;99.90
11818;DHT22;5966;52.402;5.322;2022-10-26T14:46:51;18.20;99.90
11818;DHT22;5966;52.402;5.322;2022-10-26T14:49:22;18.20;99.90
11818;DHT22;5966;52.402;5.322;2022-10-26T14:51:56;18.20;99.90
11818;DHT22;5966;52.402;5.322;2022-10-26T14:54:27;18.10;99.90
11818;DHT22;5966;52.402;5.322;2022-10-26T14:56:55;18.10;99.90
11818;DHT22;5966;52.402;5.322;2022-10-26T14:59:25;18.10;99.90
11818;DHT22;5966;52.402;5.322;2022-10-26T15:01:54;18.10;99.90
11818;DHT22;5966;52.402;5.322;2022-10-26T15:04:29;18.00;99.90
11818;DHT22;5966;52.402;5.322;2022-10-26T15:07:08;18.00;99.90
11818;DHT22;5966;52.402;5.322;2022-10-26T15:09:42;18.00;99.90
11818;DHT22;5966;52.402;5.322;2022-10-26T15:12:25;18.00;99.90
11818;DHT22;5966;52.402;5.322;2022-10-26T15:14:54;18.00;99.90
11818;DHT22;5966;52.402;5.322;2022-10-26T15:17:26;17.90;99.90
11818;DHT22;5966;52.402;5.322;2022-10-26T15:20:02;17.90;99.90
11818;DHT22;5966;52.402;5.322;2022-10-26T15:22:32;17.90;99.90
11818;DHT22;5966;52.402;5.322;2022-10-26T15:25:03;17.90;99.90
11818;DHT22;5966;52.402;5.322;2022-10-26T15:27:31;17.90;99.90
11818;DHT22;5966;52.402;5.322;2022-10-26T15:30:22;17.90;99.90
11818;DHT22;5966;52.402;5.322;2022-10-26T15:32:51;17.90;99.90
11818;DHT22;5966;52.402;5.322;2022-10-26T15:35:28;17.80;99.90
11818;DHT22;5966;52.402;5.322;2022-10-26T15:37:58;17.80;99.90
11818;DHT22;5966;52.402;5.322;2022-10-26T15:40:28;17.80;99.90
11818;DHT22;5966;52.402;5.322;2022-10-26T15:42:59;17.80;99.90
11818;DHT22;5966;52.402;5.322;2022-10-26T15:45:29;17.80;99.90
11818;DHT22;5966;52.402;5.322;2022-10-26T15:47:59;17.80;99.90
11818;DHT22;5966;52.402;5.322;2022-10-26T15:50:42;17.80;99.90
11818;DHT22;5966;52.402;5.322;2022-10-26T15:53:18;17.80;99.90
11818;DHT22;5966;52.402;5.322;2022-10-26T15:55:47;17.80;99.90
11818;DHT22;5966;52.402;5.322;2022-10-26T15:58:15;17.80;99.90
11818;DHT22;5966;52.402;5.322;2022-10-26T16:00:43;17.80;99.90
11818;DHT22;5966;52.402;5.322;2022-10-26T16:03:13;17.80;99.90
11818;DHT22;5966;52.402;5.322;2022-10-26T16:05:42;17.80;99.90
11818;DHT22;5966;52.402;5.322;2022-10-26T16:08:14;17.80;99.90
11818;DHT22;5966;52.402;5.322;2022-10-26T16:10:44;17.80;99.90
11818;DHT22;5966;52.402;5.322;2022-10-26T16:13:13;17.80;99.90
11818;DHT22;5966;52.402;5.322;2022-10-26T16:15:42;17.70;99.90
11818;DHT22;5966;52.402;5.322;2022-10-26T16:18:10;17.70;99.90
11818;DHT22;5966;52.402;5.322;2022-10-26T16:20:38;17.70;99.90
11818;DHT22;5966;52.402;5.322;2022-10-26T16:23:06;17.70;99.90
11818;DHT22;5966;52.402;5.322;2022-10-26T16:25:42;17.70;99.90
11818;DHT22;5966;52.402;5.322;2022-10-26T16:28:12;17.60;99.90
11818;DHT22;5966;52.402;5.322;2022-10-26T16:30:41;17.60;99.90
11818;DHT22;5966;52.402;5.322;2022-10-26T16:33:09;17.60;99.90
11818;DHT22;5966;52.402;5.322;2022-10-26T16:35:37;17.50;99.90
11818;DHT22;5966;52.402;5.322;2022-10-26T16:38:05;17.50;99.90